ASA467 KSEA-KBOI
Flight info
| Callsign | ASA467 |
|---|---|
| Flight time | 1h 23m |
| Altitude | 37000 |
| Route | SUMMA2 SUMMA J54 BKE DEVLE KYAAN4 |
| Aircraft | B738/M-SDE2E3FGHIRWXY/LB1 |
Departure
| Time | 2026-05-05 22:54 |
|---|---|
| Airport | Seattle–Tacoma International Airport (KSEA) |
Arrival
| Time | 2026-05-06 00:18 |
|---|---|
| Airport | Boise Air Terminal/Gowen Field (KBOI) |
| Time | Latitude | Longitude | Altitude | Speed | Heading |
|---|---|---|---|---|---|
| 2026-05-05 22:33 | 47.44864 | -122.30407 | 408 ft | 0 kts | 43° |
| 2026-05-05 22:44 | 47.44849 | -122.30427 | 405 ft | 3 kts | 42° |
| 2026-05-05 22:45 | 47.44831 | -122.30448 | 405 ft | 3 kts | 29° |
| 2026-05-05 22:45 | 47.44812 | -122.30457 | 407 ft | 4 kts | 337° |
| 2026-05-05 22:45 | 47.44796 | -122.30437 | 405 ft | 4 kts | 298° |
| 2026-05-05 22:45 | 47.44788 | -122.30414 | 406 ft | 2 kts | 297° |
| 2026-05-05 22:46 | 47.44787 | -122.30410 | 406 ft | 1 kts | 297° |
| 2026-05-05 22:50 | 47.44797 | -122.30440 | 405 ft | 6 kts | 294° |
| 2026-05-05 22:50 | 47.44806 | -122.30512 | 406 ft | 8 kts | 271° |
| 2026-05-05 22:50 | 47.44815 | -122.30603 | 403 ft | 12 kts | 301° |
| 2026-05-05 22:50 | 47.44908 | -122.30629 | 405 ft | 16 kts | 359° |
| 2026-05-05 22:51 | 47.45027 | -122.30629 | 410 ft | 18 kts | 360° |
| 2026-05-05 22:51 | 47.45165 | -122.30627 | 411 ft | 21 kts | 1° |
| 2026-05-05 22:51 | 47.45314 | -122.30625 | 416 ft | 21 kts | 0° |
| 2026-05-05 22:51 | 47.45463 | -122.30626 | 426 ft | 22 kts | 359° |
| 2026-05-05 22:52 | 47.45617 | -122.30622 | 423 ft | 23 kts | 0° |
| 2026-05-05 22:52 | 47.45781 | -122.30619 | 430 ft | 23 kts | 0° |
| 2026-05-05 22:52 | 47.45939 | -122.30619 | 434 ft | 22 kts | 0° |
| 2026-05-05 22:52 | 47.46094 | -122.30618 | 434 ft | 22 kts | 0° |
| 2026-05-05 22:53 | 47.46245 | -122.30617 | 429 ft | 21 kts | 360° |
| 2026-05-05 22:53 | 47.46352 | -122.30629 | 430 ft | 9 kts | 332° |
| 2026-05-05 22:53 | 47.46374 | -122.30711 | 433 ft | 9 kts | 253° |
| 2026-05-05 22:53 | 47.46296 | -122.30776 | 434 ft | 21 kts | 186° |
| 2026-05-05 22:54 | 47.45976 | -122.30779 | 427 ft | 83 kts | 180° |
| 2026-05-05 22:54 | 47.45150 | -122.30790 | 416 ft | 152 kts | 181° |
| 2026-05-05 22:54 | 47.43919 | -122.30777 | 641 ft | 189 kts | 180° |
| 2026-05-05 22:54 | 47.42621 | -122.30720 | 1734 ft | 186 kts | 180° |
| 2026-05-05 22:55 | 47.41325 | -122.30700 | 2621 ft | 193 kts | 182° |
| 2026-05-05 22:55 | 47.39893 | -122.30698 | 2978 ft | 217 kts | 181° |
| 2026-05-05 22:55 | 47.38314 | -122.30709 | 3311 ft | 238 kts | 180° |
| 2026-05-05 22:55 | 47.36590 | -122.30719 | 3637 ft | 261 kts | 180° |
| 2026-05-05 22:56 | 47.34672 | -122.30754 | 4028 ft | 284 kts | 181° |
| 2026-05-05 22:56 | 47.32708 | -122.30813 | 5061 ft | 281 kts | 181° |
| 2026-05-05 22:56 | 47.30749 | -122.30865 | 6019 ft | 282 kts | 181° |
| 2026-05-05 22:56 | 47.28781 | -122.30907 | 6867 ft | 285 kts | 181° |
| 2026-05-05 22:57 | 47.26784 | -122.30942 | 7638 ft | 290 kts | 180° |
| 2026-05-05 22:57 | 47.24760 | -122.30955 | 8495 ft | 291 kts | 176° |
| 2026-05-05 22:57 | 47.22771 | -122.30355 | 9286 ft | 295 kts | 162° |
| 2026-05-05 22:57 | 47.20806 | -122.29380 | 10030 ft | 300 kts | 160° |
| 2026-05-05 22:58 | 47.18812 | -122.28333 | 10563 ft | 314 kts | 159° |
| 2026-05-05 22:58 | 47.16671 | -122.27195 | 10738 ft | 339 kts | 159° |
| 2026-05-05 22:58 | 47.14376 | -122.25978 | 10962 ft | 361 kts | 160° |
| 2026-05-05 22:58 | 47.11980 | -122.24715 | 11470 ft | 371 kts | 160° |
| 2026-05-05 22:59 | 47.09535 | -122.23434 | 12164 ft | 375 kts | 160° |
| 2026-05-05 22:59 | 47.07059 | -122.22142 | 12852 ft | 380 kts | 159° |
| 2026-05-05 22:59 | 47.04550 | -122.20837 | 13523 ft | 385 kts | 159° |
| 2026-05-05 22:59 | 47.02008 | -122.19518 | 14126 ft | 390 kts | 159° |
| 2026-05-05 23:00 | 46.96825 | -122.16833 | 15293 ft | 399 kts | 159° |
| 2026-05-05 23:00 | 46.94191 | -122.15472 | 15883 ft | 404 kts | 159° |
| 2026-05-05 23:00 | 46.91529 | -122.14097 | 16471 ft | 408 kts | 159° |
| 2026-05-05 23:01 | 46.88836 | -122.12707 | 17047 ft | 413 kts | 159° |
| 2026-05-05 23:01 | 46.86114 | -122.11305 | 17624 ft | 418 kts | 159° |
| 2026-05-05 23:01 | 46.83354 | -122.09883 | 18135 ft | 423 kts | 158° |
| 2026-05-05 23:01 | 46.80561 | -122.08446 | 18644 ft | 427 kts | 159° |
| 2026-05-05 23:02 | 46.77746 | -122.07000 | 19148 ft | 431 kts | 159° |
| 2026-05-05 23:02 | 46.74907 | -122.05542 | 19655 ft | 434 kts | 159° |
| 2026-05-05 23:02 | 46.72051 | -122.04080 | 20139 ft | 438 kts | 159° |
| 2026-05-05 23:02 | 46.69158 | -122.02601 | 20634 ft | 442 kts | 159° |
| 2026-05-05 23:03 | 46.66240 | -122.01109 | 21092 ft | 445 kts | 159° |
| 2026-05-05 23:03 | 46.63411 | -121.99333 | 21705 ft | 442 kts | 147° |
| 2026-05-05 23:03 | 46.60962 | -121.96751 | 22143 ft | 441 kts | 135° |
| 2026-05-05 23:03 | 46.58879 | -121.93482 | 22532 ft | 441 kts | 122° |
| 2026-05-05 23:04 | 46.57276 | -121.89694 | 22984 ft | 440 kts | 115° |
| 2026-05-05 23:04 | 46.55764 | -121.85807 | 23412 ft | 444 kts | 115° |
| 2026-05-05 23:04 | 46.54251 | -121.81870 | 23729 ft | 447 kts | 114° |
| 2026-05-05 23:04 | 46.52771 | -121.77900 | 24061 ft | 449 kts | 114° |
| 2026-05-05 23:05 | 46.51244 | -121.73919 | 24423 ft | 453 kts | 115° |
| 2026-05-05 23:05 | 46.49681 | -121.69947 | 24871 ft | 452 kts | 116° |
| 2026-05-05 23:05 | 46.48104 | -121.65984 | 25200 ft | 456 kts | 116° |
| 2026-05-05 23:05 | 46.46507 | -121.61988 | 25465 ft | 461 kts | 116° |
| 2026-05-05 23:06 | 46.44896 | -121.57960 | 25807 ft | 462 kts | 116° |
| 2026-05-05 23:06 | 46.43280 | -121.53918 | 26181 ft | 464 kts | 116° |
| 2026-05-05 23:06 | 46.41658 | -121.49861 | 26536 ft | 466 kts | 116° |
| 2026-05-05 23:06 | 46.40030 | -121.45792 | 26898 ft | 468 kts | 116° |
| 2026-05-05 23:07 | 46.38391 | -121.41699 | 27223 ft | 471 kts | 117° |
| 2026-05-05 23:07 | 46.36744 | -121.37590 | 27502 ft | 474 kts | 116° |
| 2026-05-05 23:07 | 46.35084 | -121.33454 | 27796 ft | 476 kts | 117° |
| 2026-05-05 23:07 | 46.33416 | -121.29303 | 28097 ft | 478 kts | 117° |
| 2026-05-05 23:08 | 46.31740 | -121.25140 | 28395 ft | 480 kts | 117° |
| 2026-05-05 23:08 | 46.30055 | -121.20962 | 28725 ft | 482 kts | 117° |
| 2026-05-05 23:08 | 46.28360 | -121.16765 | 29028 ft | 484 kts | 117° |
| 2026-05-05 23:08 | 46.26656 | -121.12553 | 29306 ft | 487 kts | 117° |
| 2026-05-05 23:09 | 46.24942 | -121.08321 | 29586 ft | 489 kts | 117° |
| 2026-05-05 23:09 | 46.23224 | -121.04088 | 29969 ft | 489 kts | 117° |
| 2026-05-05 23:09 | 46.21506 | -120.99862 | 30340 ft | 487 kts | 117° |
| 2026-05-05 23:09 | 46.19793 | -120.95655 | 30741 ft | 485 kts | 116° |
| 2026-05-05 23:10 | 46.18085 | -120.91455 | 30997 ft | 486 kts | 116° |
| 2026-05-05 23:10 | 46.16365 | -120.87239 | 31236 ft | 488 kts | 116° |
| 2026-05-05 23:10 | 46.14641 | -120.83024 | 31572 ft | 487 kts | 116° |
| 2026-05-05 23:10 | 46.12921 | -120.78828 | 31960 ft | 485 kts | 116° |
| 2026-05-05 23:11 | 46.11228 | -120.74704 | 32326 ft | 484 kts | 116° |
| 2026-05-05 23:11 | 46.09515 | -120.70536 | 32667 ft | 483 kts | 116° |
| 2026-05-05 23:11 | 46.07805 | -120.66380 | 32974 ft | 483 kts | 116° |
| 2026-05-05 23:11 | 46.06092 | -120.62220 | 33281 ft | 482 kts | 116° |
| 2026-05-05 23:12 | 46.04382 | -120.58073 | 33602 ft | 481 kts | 116° |
| 2026-05-05 23:12 | 46.02673 | -120.53937 | 33930 ft | 480 kts | 116° |
| 2026-05-05 23:12 | 46.00963 | -120.49805 | 34181 ft | 480 kts | 116° |
| 2026-05-05 23:12 | 45.99253 | -120.45678 | 34424 ft | 480 kts | 116° |
| 2026-05-05 23:13 | 45.97543 | -120.41558 | 34691 ft | 480 kts | 116° |
| 2026-05-05 23:13 | 45.95834 | -120.37445 | 34946 ft | 479 kts | 116° |
| 2026-05-05 23:13 | 45.94679 | -120.34668 | 35101 ft | 479 kts | 116° |
| 2026-05-05 23:13 | 45.92970 | -120.30568 | 35326 ft | 479 kts | 116° |
| 2026-05-05 23:14 | 45.91281 | -120.26520 | 35549 ft | 478 kts | 116° |
| 2026-05-05 23:14 | 45.89572 | -120.22428 | 35771 ft | 478 kts | 116° |
| 2026-05-05 23:14 | 45.87860 | -120.18337 | 36004 ft | 477 kts | 116° |
| 2026-05-05 23:14 | 45.86150 | -120.14257 | 36227 ft | 477 kts | 116° |
| 2026-05-05 23:15 | 45.84439 | -120.10182 | 36437 ft | 477 kts | 116° |
| 2026-05-05 23:15 | 45.82726 | -120.06106 | 36670 ft | 477 kts | 115° |
| 2026-05-05 23:15 | 45.81010 | -120.02029 | 36823 ft | 477 kts | 115° |
| 2026-05-05 23:15 | 45.79296 | -119.97963 | 36888 ft | 477 kts | 115° |
| 2026-05-05 23:16 | 45.75853 | -119.89809 | 36893 ft | 479 kts | 115° |
| 2026-05-05 23:16 | 45.72395 | -119.81649 | 36902 ft | 480 kts | 115° |
| 2026-05-05 23:17 | 45.68924 | -119.73480 | 36898 ft | 481 kts | 115° |
| 2026-05-05 23:17 | 45.65444 | -119.65314 | 36904 ft | 481 kts | 115° |
| 2026-05-05 23:18 | 45.61953 | -119.57150 | 36908 ft | 481 kts | 115° |
| 2026-05-05 23:18 | 45.58460 | -119.49001 | 36909 ft | 481 kts | 115° |
| 2026-05-05 23:19 | 45.54963 | -119.40868 | 36922 ft | 481 kts | 115° |
| 2026-05-05 23:19 | 45.51463 | -119.32750 | 36921 ft | 480 kts | 115° |
| 2026-05-05 23:20 | 45.47959 | -119.24648 | 36924 ft | 480 kts | 115° |
| 2026-05-05 23:20 | 45.44456 | -119.16571 | 36938 ft | 479 kts | 115° |
| 2026-05-05 23:21 | 45.40950 | -119.08509 | 36942 ft | 479 kts | 115° |
| 2026-05-05 23:21 | 45.37443 | -119.00468 | 36942 ft | 478 kts | 115° |
| 2026-05-05 23:22 | 45.33929 | -118.92433 | 36936 ft | 478 kts | 115° |
| 2026-05-05 23:22 | 45.30409 | -118.84407 | 36942 ft | 478 kts | 115° |
| 2026-05-05 23:23 | 45.26909 | -118.76448 | 36972 ft | 479 kts | 115° |
| 2026-05-05 23:23 | 45.23378 | -118.68444 | 36965 ft | 478 kts | 116° |
| 2026-05-05 23:24 | 45.19844 | -118.60456 | 36958 ft | 478 kts | 116° |
| 2026-05-05 23:24 | 45.16315 | -118.52501 | 36989 ft | 477 kts | 116° |
| 2026-05-05 23:25 | 45.12775 | -118.44540 | 36981 ft | 478 kts | 116° |
| 2026-05-05 23:25 | 45.09225 | -118.36582 | 36980 ft | 478 kts | 116° |
| 2026-05-05 23:26 | 45.05665 | -118.28621 | 36971 ft | 480 kts | 116° |
| 2026-05-05 23:26 | 45.02094 | -118.20666 | 36966 ft | 473 kts | 116° |
| 2026-05-05 23:27 | 45.00357 | -118.16820 | 36958 ft | 455 kts | 116° |
| 2026-05-05 23:27 | 44.98678 | -118.13108 | 36928 ft | 441 kts | 115° |
| 2026-05-05 23:27 | 44.95423 | -118.05877 | 36952 ft | 437 kts | 115° |
| 2026-05-05 23:28 | 44.92142 | -117.98591 | 36664 ft | 440 kts | 115° |
| 2026-05-05 23:28 | 44.90485 | -117.94925 | 35840 ft | 448 kts | 115° |
| 2026-05-05 23:28 | 44.88789 | -117.91174 | 34890 ft | 460 kts | 116° |
| 2026-05-05 23:29 | 44.87042 | -117.87321 | 33941 ft | 472 kts | 116° |
| 2026-05-05 23:29 | 44.85161 | -117.83465 | 32938 ft | 486 kts | 123° |
| 2026-05-05 23:29 | 44.82821 | -117.79935 | 32020 ft | 499 kts | 133° |
| 2026-05-05 23:29 | 44.80056 | -117.76902 | 31250 ft | 509 kts | 142° |
| 2026-05-05 23:30 | 44.77075 | -117.74242 | 30780 ft | 505 kts | 144° |
| 2026-05-05 23:30 | 44.74098 | -117.71664 | 30403 ft | 499 kts | 144° |
| 2026-05-05 23:30 | 44.71156 | -117.69121 | 29934 ft | 495 kts | 144° |
| 2026-05-05 23:30 | 44.68243 | -117.66578 | 29363 ft | 491 kts | 143° |
| 2026-05-05 23:31 | 44.65366 | -117.64039 | 28838 ft | 486 kts | 143° |
| 2026-05-05 23:31 | 44.62523 | -117.61512 | 28311 ft | 482 kts | 143° |
| 2026-05-05 23:31 | 44.59707 | -117.58999 | 27819 ft | 478 kts | 143° |
| 2026-05-05 23:31 | 44.56918 | -117.56505 | 27447 ft | 472 kts | 143° |
| 2026-05-05 23:32 | 44.54162 | -117.54055 | 26945 ft | 465 kts | 143° |
| 2026-05-05 23:32 | 44.51447 | -117.51640 | 26180 ft | 460 kts | 143° |
| 2026-05-05 23:32 | 44.48750 | -117.49240 | 25351 ft | 458 kts | 143° |
| 2026-05-05 23:32 | 44.46076 | -117.46862 | 24625 ft | 453 kts | 143° |
| 2026-05-05 23:33 | 44.43432 | -117.44517 | 23990 ft | 447 kts | 143° |
| 2026-05-05 23:33 | 44.40825 | -117.42208 | 23341 ft | 441 kts | 143° |
| 2026-05-05 23:33 | 44.38243 | -117.39924 | 22567 ft | 436 kts | 144° |
| 2026-05-05 23:33 | 44.35693 | -117.37670 | 21817 ft | 432 kts | 144° |
| 2026-05-05 23:34 | 44.33168 | -117.35440 | 21111 ft | 426 kts | 144° |
| 2026-05-05 23:34 | 44.30678 | -117.33243 | 20607 ft | 422 kts | 144° |
| 2026-05-05 23:34 | 44.28203 | -117.31060 | 20133 ft | 420 kts | 144° |
| 2026-05-05 23:34 | 44.25740 | -117.28891 | 19675 ft | 417 kts | 144° |
| 2026-05-05 23:35 | 44.23290 | -117.26737 | 19219 ft | 415 kts | 145° |
| 2026-05-05 23:35 | 44.20870 | -117.24562 | 18770 ft | 412 kts | 140° |
| 2026-05-05 23:35 | 44.18711 | -117.22005 | 18405 ft | 404 kts | 133° |
| 2026-05-05 23:35 | 44.16698 | -117.19298 | 17956 ft | 401 kts | 132° |
| 2026-05-05 23:36 | 44.14715 | -117.16581 | 17481 ft | 399 kts | 132° |
| 2026-05-05 23:36 | 44.12736 | -117.13892 | 17034 ft | 396 kts | 133° |
| 2026-05-05 23:36 | 44.10756 | -117.11246 | 16610 ft | 393 kts | 133° |
| 2026-05-05 23:36 | 44.08815 | -117.08685 | 16282 ft | 387 kts | 134° |
| 2026-05-05 23:37 | 44.06862 | -117.06127 | 15870 ft | 384 kts | 134° |
| 2026-05-05 23:37 | 44.04920 | -117.03592 | 15462 ft | 382 kts | 134° |
| 2026-05-05 23:37 | 44.02982 | -117.01067 | 15034 ft | 381 kts | 134° |
| 2026-05-05 23:37 | 44.01054 | -116.98556 | 14611 ft | 379 kts | 134° |
| 2026-05-05 23:38 | 43.99136 | -116.96061 | 14197 ft | 377 kts | 135° |
| 2026-05-05 23:38 | 43.97225 | -116.93571 | 13768 ft | 376 kts | 134° |
| 2026-05-05 23:38 | 43.95564 | -116.90810 | 13313 ft | 371 kts | 122° |
| 2026-05-05 23:38 | 43.94149 | -116.87833 | 12875 ft | 369 kts | 120° |
| 2026-05-05 23:39 | 43.92769 | -116.84847 | 12437 ft | 367 kts | 120° |
| 2026-05-05 23:39 | 43.91386 | -116.81882 | 12010 ft | 365 kts | 120° |
| 2026-05-05 23:39 | 43.89995 | -116.78953 | 11592 ft | 363 kts | 120° |
| 2026-05-05 23:39 | 43.88600 | -116.76053 | 11221 ft | 359 kts | 121° |
| 2026-05-05 23:40 | 43.87227 | -116.73223 | 11068 ft | 349 kts | 121° |
| 2026-05-05 23:40 | 43.85886 | -116.70469 | 10914 ft | 340 kts | 121° |
| 2026-05-05 23:40 | 43.84580 | -116.67791 | 10765 ft | 331 kts | 121° |
| 2026-05-05 23:40 | 43.83304 | -116.65179 | 10622 ft | 323 kts | 121° |
| 2026-05-05 23:41 | 43.82048 | -116.62618 | 10338 ft | 321 kts | 121° |
| 2026-05-05 23:41 | 43.80804 | -116.60111 | 10148 ft | 310 kts | 121° |
| 2026-05-05 23:41 | 43.79602 | -116.57697 | 10013 ft | 299 kts | 120° |
| 2026-05-05 23:41 | 43.78434 | -116.55349 | 9750 ft | 294 kts | 120° |
| 2026-05-05 23:42 | 43.77283 | -116.53029 | 9445 ft | 290 kts | 120° |
| 2026-05-05 23:42 | 43.76144 | -116.50737 | 9181 ft | 288 kts | 121° |
| 2026-05-05 23:42 | 43.75010 | -116.48455 | 8911 ft | 288 kts | 121° |
| 2026-05-05 23:42 | 43.73876 | -116.46177 | 8635 ft | 287 kts | 121° |
| 2026-05-05 23:43 | 43.72752 | -116.43920 | 8504 ft | 282 kts | 121° |
| 2026-05-05 23:43 | 43.71651 | -116.41710 | 8353 ft | 276 kts | 121° |
| 2026-05-05 23:43 | 43.70575 | -116.39556 | 8236 ft | 269 kts | 121° |
| 2026-05-05 23:43 | 43.69520 | -116.37445 | 8112 ft | 267 kts | 120° |
| 2026-05-05 23:44 | 43.68470 | -116.35337 | 8019 ft | 264 kts | 120° |
| 2026-05-05 23:44 | 43.67528 | -116.33199 | 7810 ft | 259 kts | 111° |
| 2026-05-05 23:44 | 43.66779 | -116.30975 | 7567 ft | 250 kts | 110° |
| 2026-05-05 23:44 | 43.66070 | -116.28840 | 7306 ft | 240 kts | 110° |
| 2026-05-05 23:45 | 43.65377 | -116.26796 | 7046 ft | 231 kts | 109° |
| 2026-05-05 23:45 | 43.64705 | -116.24836 | 6785 ft | 221 kts | 109° |
| 2026-05-05 23:45 | 43.64070 | -116.22971 | 6540 ft | 214 kts | 109° |
| 2026-05-05 23:45 | 43.63432 | -116.21110 | 6328 ft | 209 kts | 109° |
| 2026-05-05 23:46 | 43.62821 | -116.19333 | 6105 ft | 206 kts | 110° |
| 2026-05-05 23:46 | 43.62200 | -116.17534 | 5886 ft | 204 kts | 110° |
| 2026-05-05 23:46 | 43.61595 | -116.15781 | 5660 ft | 202 kts | 110° |
| 2026-05-05 23:46 | 43.60999 | -116.14064 | 5468 ft | 203 kts | 111° |
| 2026-05-05 23:47 | 43.60120 | -116.12551 | 5177 ft | 205 kts | 148° |
| 2026-05-05 23:47 | 43.58789 | -116.12238 | 5065 ft | 191 kts | 199° |
| 2026-05-05 23:47 | 43.57600 | -116.13005 | 4818 ft | 189 kts | 214° |
| 2026-05-05 23:47 | 43.56378 | -116.13520 | 4603 ft | 184 kts | 184° |
| 2026-05-05 23:48 | 43.55173 | -116.13141 | 4454 ft | 175 kts | 163° |
| 2026-05-05 23:48 | 43.53994 | -116.12694 | 4483 ft | 179 kts | 170° |
| 2026-05-05 23:48 | 43.52769 | -116.12245 | 4691 ft | 181 kts | 163° |
| 2026-05-05 23:48 | 43.51764 | -116.11367 | 4954 ft | 167 kts | 126° |
| 2026-05-05 23:49 | 43.51325 | -116.10002 | 4890 ft | 154 kts | 86° |
| 2026-05-05 23:49 | 43.51599 | -116.08682 | 5190 ft | 140 kts | 41° |
| 2026-05-05 23:49 | 43.52473 | -116.08283 | 5179 ft | 142 kts | 345° |
| 2026-05-05 23:49 | 43.53141 | -116.09193 | 5083 ft | 140 kts | 294° |
| 2026-05-05 23:50 | 43.53160 | -116.10608 | 4789 ft | 158 kts | 270° |
| 2026-05-05 23:50 | 43.53108 | -116.12086 | 4600 ft | 142 kts | 278° |
| 2026-05-05 23:50 | 43.53292 | -116.13317 | 4251 ft | 129 kts | 294° |
| 2026-05-05 23:50 | 43.53652 | -116.14489 | 4023 ft | 133 kts | 298° |
| 2026-05-05 23:51 | 43.54026 | -116.15662 | 3852 ft | 129 kts | 300° |
| 2026-05-05 23:51 | 43.54405 | -116.16757 | 3638 ft | 126 kts | 301° |
| 2026-05-05 23:51 | 43.54820 | -116.17904 | 3522 ft | 135 kts | 300° |
| 2026-05-05 23:51 | 43.55232 | -116.19085 | 3311 ft | 136 kts | 298° |
| 2026-05-05 23:52 | 43.55624 | -116.20253 | 3082 ft | 131 kts | 297° |
| 2026-05-05 23:52 | 43.56004 | -116.21356 | 2901 ft | 127 kts | 294° |
| 2026-05-05 23:52 | 43.56369 | -116.22380 | 2928 ft | 124 kts | 299° |
| 2026-05-05 23:52 | 43.56759 | -116.23567 | 3380 ft | 143 kts | 294° |
| 2026-05-05 23:53 | 43.57141 | -116.24929 | 3980 ft | 158 kts | 300° |
| 2026-05-05 23:53 | 43.57610 | -116.26281 | 4839 ft | 161 kts | 299° |
| 2026-05-05 23:53 | 43.58101 | -116.27666 | 5634 ft | 164 kts | 303° |
| 2026-05-05 23:53 | 43.58602 | -116.29082 | 6505 ft | 164 kts | 303° |
| 2026-05-05 23:54 | 43.59118 | -116.30545 | 7005 ft | 189 kts | 302° |
| 2026-05-05 23:54 | 43.59755 | -116.32352 | 6859 ft | 226 kts | 300° |
| 2026-05-05 23:54 | 43.60472 | -116.34429 | 6779 ft | 249 kts | 300° |
| 2026-05-05 23:54 | 43.61202 | -116.36582 | 6621 ft | 247 kts | 298° |
| 2026-05-05 23:55 | 43.61924 | -116.38718 | 6447 ft | 243 kts | 298° |
| 2026-05-05 23:55 | 43.62632 | -116.40809 | 6285 ft | 238 kts | 298° |
| 2026-05-05 23:55 | 43.63329 | -116.42861 | 6116 ft | 234 kts | 299° |
| 2026-05-05 23:55 | 43.63996 | -116.44837 | 6023 ft | 226 kts | 299° |
| 2026-05-05 23:56 | 43.64645 | -116.46761 | 6012 ft | 219 kts | 300° |
| 2026-05-05 23:56 | 43.65284 | -116.48667 | 6010 ft | 218 kts | 300° |
| 2026-05-05 23:56 | 43.65920 | -116.50568 | 6019 ft | 218 kts | 300° |
| 2026-05-05 23:56 | 43.66549 | -116.52456 | 6240 ft | 216 kts | 299° |
| 2026-05-05 23:57 | 43.67182 | -116.54355 | 6485 ft | 219 kts | 299° |
| 2026-05-05 23:57 | 43.67827 | -116.56288 | 6715 ft | 223 kts | 299° |
| 2026-05-05 23:57 | 43.68467 | -116.58239 | 6959 ft | 223 kts | 295° |
| 2026-05-05 23:57 | 43.68675 | -116.60395 | 7000 ft | 235 kts | 266° |
| 2026-05-05 23:58 | 43.68095 | -116.62532 | 7008 ft | 245 kts | 240° |
| 2026-05-05 23:58 | 43.66812 | -116.64115 | 7011 ft | 254 kts | 209° |
| 2026-05-05 23:58 | 43.65077 | -116.64658 | 7005 ft | 261 kts | 177° |
| 2026-05-05 23:58 | 43.63359 | -116.63931 | 6998 ft | 261 kts | 142° |
| 2026-05-05 23:59 | 43.62194 | -116.62113 | 7027 ft | 251 kts | 114° |
| 2026-05-05 23:59 | 43.61380 | -116.59970 | 7016 ft | 253 kts | 113° |
| 2026-05-05 23:59 | 43.60583 | -116.57792 | 7016 ft | 255 kts | 112° |
| 2026-05-05 23:59 | 43.59785 | -116.55601 | 7011 ft | 256 kts | 112° |
| 2026-05-06 00:00 | 43.58979 | -116.53405 | 6992 ft | 257 kts | 113° |
| 2026-05-06 00:00 | 43.58170 | -116.51211 | 6997 ft | 257 kts | 113° |
| 2026-05-06 00:00 | 43.57359 | -116.49014 | 7008 ft | 257 kts | 113° |
| 2026-05-06 00:00 | 43.56544 | -116.46815 | 7008 ft | 258 kts | 113° |
| 2026-05-06 00:01 | 43.55989 | -116.45325 | 7004 ft | 258 kts | 113° |
| 2026-05-06 00:01 | 43.55173 | -116.43135 | 6998 ft | 256 kts | 112° |
| 2026-05-06 00:01 | 43.54375 | -116.40997 | 6986 ft | 253 kts | 112° |
| 2026-05-06 00:01 | 43.53574 | -116.38854 | 6985 ft | 250 kts | 111° |
| 2026-05-06 00:02 | 43.52782 | -116.36735 | 6986 ft | 248 kts | 112° |
| 2026-05-06 00:02 | 43.51995 | -116.34631 | 6986 ft | 248 kts | 112° |
| 2026-05-06 00:02 | 43.51200 | -116.32506 | 6994 ft | 250 kts | 112° |
| 2026-05-06 00:02 | 43.50413 | -116.30414 | 7007 ft | 240 kts | 112° |
| 2026-05-06 00:03 | 43.49670 | -116.28445 | 6972 ft | 223 kts | 112° |
| 2026-05-06 00:03 | 43.48990 | -116.26621 | 6933 ft | 208 kts | 110° |
| 2026-05-06 00:03 | 43.48368 | -116.24808 | 6713 ft | 210 kts | 108° |
| 2026-05-06 00:03 | 43.47755 | -116.23000 | 6505 ft | 207 kts | 108° |
| 2026-05-06 00:04 | 43.47149 | -116.21223 | 6289 ft | 204 kts | 109° |
| 2026-05-06 00:04 | 43.46550 | -116.19467 | 6055 ft | 202 kts | 109° |
| 2026-05-06 00:04 | 43.46095 | -116.17663 | 5837 ft | 197 kts | 91° |
| 2026-05-06 00:04 | 43.46121 | -116.15820 | 5653 ft | 190 kts | 71° |
| 2026-05-06 00:05 | 43.47313 | -116.12765 | 5217 ft | 175 kts | 35° |
| 2026-05-06 00:05 | 43.48292 | -116.11862 | 5023 ft | 170 kts | 19° |
| 2026-05-06 00:05 | 43.49440 | -116.11375 | 4722 ft | 177 kts | 2° |
| 2026-05-06 00:06 | 43.50651 | -116.11368 | 4586 ft | 171 kts | 350° |
| 2026-05-06 00:06 | 43.51774 | -116.11776 | 4590 ft | 157 kts | 343° |
| 2026-05-06 00:06 | 43.52750 | -116.12024 | 5068 ft | 140 kts | 343° |
| 2026-05-06 00:06 | 43.53630 | -116.12928 | 5179 ft | 188 kts | 307° |
| 2026-05-06 00:07 | 43.54139 | -116.14732 | 5504 ft | 217 kts | 291° |
| 2026-05-06 00:07 | 43.54594 | -116.16796 | 5701 ft | 224 kts | 292° |
| 2026-05-06 00:07 | 43.55175 | -116.18765 | 5551 ft | 221 kts | 301° |
| 2026-05-06 00:07 | 43.55867 | -116.20693 | 5320 ft | 226 kts | 300° |
| 2026-05-06 00:08 | 43.56467 | -116.22666 | 5367 ft | 222 kts | 296° |
| 2026-05-06 00:08 | 43.56984 | -116.24653 | 5377 ft | 218 kts | 295° |
| 2026-05-06 00:08 | 43.57496 | -116.26608 | 5385 ft | 216 kts | 294° |
| 2026-05-06 00:08 | 43.58005 | -116.28542 | 5392 ft | 213 kts | 295° |
| 2026-05-06 00:09 | 43.58485 | -116.30459 | 5459 ft | 209 kts | 295° |
| 2026-05-06 00:09 | 43.58920 | -116.32268 | 5691 ft | 196 kts | 295° |
| 2026-05-06 00:09 | 43.59368 | -116.34137 | 5948 ft | 215 kts | 294° |
| 2026-05-06 00:09 | 43.59880 | -116.36146 | 6374 ft | 231 kts | 295° |
| 2026-05-06 00:10 | 43.60429 | -116.38241 | 6882 ft | 234 kts | 294° |
| 2026-05-06 00:10 | 43.60976 | -116.40339 | 6940 ft | 237 kts | 289° |
| 2026-05-06 00:10 | 43.61008 | -116.42772 | 7011 ft | 273 kts | 261° |
| 2026-05-06 00:10 | 43.60148 | -116.45195 | 7009 ft | 293 kts | 234° |
| 2026-05-06 00:11 | 43.58520 | -116.46931 | 7019 ft | 303 kts | 207° |
| 2026-05-06 00:11 | 43.56459 | -116.47532 | 7018 ft | 307 kts | 179° |
| 2026-05-06 00:11 | 43.54406 | -116.46835 | 7003 ft | 306 kts | 150° |
| 2026-05-06 00:11 | 43.52852 | -116.44912 | 7009 ft | 300 kts | 118° |
| 2026-05-06 00:12 | 43.52103 | -116.42289 | 7023 ft | 293 kts | 101° |
| 2026-05-06 00:12 | 43.51597 | -116.39564 | 7011 ft | 294 kts | 99° |
| 2026-05-06 00:12 | 43.51097 | -116.36830 | 7007 ft | 295 kts | 100° |
| 2026-05-06 00:12 | 43.50569 | -116.34092 | 7001 ft | 296 kts | 101° |
| 2026-05-06 00:13 | 43.50023 | -116.31365 | 6986 ft | 295 kts | 101° |
| 2026-05-06 00:13 | 43.49472 | -116.28657 | 6991 ft | 293 kts | 101° |
| 2026-05-06 00:13 | 43.48877 | -116.25984 | 6937 ft | 292 kts | 107° |
| 2026-05-06 00:13 | 43.48032 | -116.23428 | 6577 ft | 291 kts | 112° |
| 2026-05-06 00:14 | 43.47142 | -116.20971 | 6268 ft | 284 kts | 111° |
| 2026-05-06 00:14 | 43.46287 | -116.18562 | 5949 ft | 276 kts | 108° |
| 2026-05-06 00:14 | 43.45940 | -116.16090 | 5621 ft | 252 kts | 77° |
| 2026-05-06 00:14 | 43.46510 | -116.14009 | 5417 ft | 219 kts | 47° |
| 2026-05-06 00:15 | 43.47486 | -116.12576 | 5172 ft | 194 kts | 31° |
| 2026-05-06 00:15 | 43.48594 | -116.11686 | 4962 ft | 176 kts | 15° |
| 2026-05-06 00:15 | 43.49752 | -116.11325 | 4685 ft | 166 kts | 2° |
| 2026-05-06 00:15 | 43.50888 | -116.11433 | 4552 ft | 163 kts | 344° |
| 2026-05-06 00:16 | 43.51940 | -116.11963 | 4386 ft | 159 kts | 331° |
| 2026-05-06 00:16 | 43.52822 | -116.12841 | 4179 ft | 154 kts | 314° |
| 2026-05-06 00:16 | 43.53468 | -116.14035 | 3999 ft | 162 kts | 301° |
| 2026-05-06 00:16 | 43.53981 | -116.15412 | 3771 ft | 157 kts | 298° |
| 2026-05-06 00:17 | 43.54420 | -116.16719 | 3492 ft | 145 kts | 298° |
| 2026-05-06 00:17 | 43.54844 | -116.18025 | 3287 ft | 144 kts | 299° |
| 2026-05-06 00:17 | 43.55277 | -116.19275 | 3155 ft | 145 kts | 301° |
| 2026-05-06 00:17 | 43.55711 | -116.20487 | 2992 ft | 134 kts | 301° |
| 2026-05-06 00:18 | 43.56076 | -116.21580 | 2881 ft | 112 kts | 301° |
| 2026-05-06 00:18 | 43.56327 | -116.22272 | 2878 ft | 50 kts | 296° |
| 2026-05-06 00:18 | 43.56447 | -116.22425 | 2880 ft | 16 kts | 359° |
| 2026-05-06 00:18 | 43.56473 | -116.22423 | 2880 ft | 0 kts | 3° |
| 2026-05-06 00:19 | 43.56479 | -116.22422 | 2880 ft | 0 kts | 4° |
| 2026-05-06 00:19 | 43.56503 | -116.22420 | 2880 ft | 10 kts | 4° |
| 2026-05-06 00:20 | 43.56602 | -116.22413 | 2880 ft | 15 kts | 3° |
| 2026-05-06 00:20 | 43.56681 | -116.22349 | 2880 ft | 14 kts | 86° |
| 2026-05-06 00:20 | 43.56666 | -116.22225 | 2880 ft | 12 kts | 87° |
| 2026-05-06 00:20 | 43.56703 | -116.22173 | 2880 ft | 2 kts | 18° |
| 2026-05-06 00:21 | 43.56715 | -116.22171 | 2880 ft | 4 kts | 2° |
| 2026-05-06 00:21 | 43.56751 | -116.22187 | 2880 ft | 4 kts | 335° |
| 2026-05-06 00:21 | 43.56756 | -116.22190 | 2880 ft | 0 kts | 335° |